createdAt,value
2018-07-25T00:03:48.066Z,26.80
2018-07-25T00:08:51.063Z,26.73
2018-07-25T00:13:54.054Z,26.69
2018-07-25T00:18:57.074Z,26.59
2018-07-25T00:24:00.144Z,26.42
2018-07-25T00:29:03.227Z,26.38
2018-07-25T00:34:06.245Z,26.46
2018-07-25T00:39:09.638Z,26.42
2018-07-25T00:44:12.682Z,26.32
2018-07-25T00:49:15.763Z,26.27
2018-07-25T00:54:18.754Z,26.27
2018-07-25T00:59:21.773Z,26.22
2018-07-25T01:04:24.839Z,26.21
2018-07-25T01:09:27.868Z,26.13
2018-07-25T01:14:30.978Z,26.00
2018-07-25T01:19:34.126Z,25.96
2018-07-25T01:24:37.144Z,25.83
2018-07-25T01:29:40.146Z,25.76
2018-07-25T01:34:43.149Z,25.79
2018-07-25T01:39:46.141Z,25.70
2018-07-25T01:44:49.136Z,25.37
2018-07-25T01:49:52.166Z,25.21
2018-07-25T01:54:55.235Z,25.19
2018-07-25T01:59:58.232Z,25.37
2018-07-25T02:05:01.249Z,25.45
2018-07-25T02:10:05.217Z,25.45
2018-07-25T02:15:08.351Z,25.45
2018-07-25T02:20:12.079Z,25.36
2018-07-25T02:25:15.109Z,25.28
2018-07-25T02:30:18.182Z,25.26
2018-07-25T02:35:21.226Z,25.20
2018-07-25T02:40:24.252Z,25.06
2018-07-25T02:45:31.864Z,25.03
2018-07-25T02:50:34.913Z,25.06
2018-07-25T02:55:37.960Z,25.02
2018-07-25T03:00:40.985Z,24.99
2018-07-25T03:05:44.058Z,24.95
2018-07-25T03:10:53.960Z,24.95
2018-07-25T03:16:05.045Z,24.87
2018-07-25T03:21:08.133Z,24.84
2018-07-25T03:26:11.133Z,24.82
2018-07-25T03:31:14.246Z,24.78
2018-07-25T03:36:17.289Z,24.77
2018-07-25T03:41:20.332Z,24.76
2018-07-25T03:46:23.337Z,24.80
2018-07-25T03:51:26.356Z,24.80
2018-07-25T03:56:29.453Z,24.71
2018-07-25T04:01:32.561Z,24.68
2018-07-25T04:06:35.560Z,24.79
2018-07-25T04:11:38.552Z,25.11
2018-07-25T04:16:41.569Z,25.53
2018-07-25T04:21:44.608Z,25.87
2018-07-25T04:26:47.638Z,26.12
2018-07-25T04:31:50.806Z,26.36
2018-07-25T04:36:54.066Z,26.61
2018-07-25T04:41:57.142Z,26.86
2018-07-25T04:47:00.125Z,27.11
2018-07-25T04:52:03.278Z,27.34
2018-07-25T04:57:06.314Z,27.58
2018-07-25T05:02:09.780Z,27.80
2018-07-25T05:07:12.829Z,27.91
2018-07-25T05:12:16.015Z,28.09
2018-07-25T05:17:19.058Z,28.23
2018-07-25T05:22:22.117Z,28.10
2018-07-25T05:27:25.283Z,27.93
2018-07-25T05:32:28.364Z,27.79
2018-07-25T05:37:31.461Z,27.99
2018-07-25T05:42:34.472Z,28.26
2018-07-25T05:47:37.714Z,28.82
2018-07-25T05:52:40.779Z,29.20
2018-07-25T05:57:43.885Z,29.56
2018-07-25T06:02:47.004Z,29.79
2018-07-25T06:07:50.065Z,29.90
2018-07-25T06:12:53.219Z,30.12
2018-07-25T06:17:56.390Z,30.34
2018-07-25T06:22:59.530Z,30.62
2018-07-25T06:28:02.675Z,30.78
2018-07-25T06:33:05.729Z,30.82
2018-07-25T06:38:08.825Z,30.75
2018-07-25T06:43:11.950Z,30.84
2018-07-25T06:48:15.257Z,30.85
2018-07-25T06:53:18.292Z,31.14
2018-07-25T06:58:21.370Z,31.18
2018-07-25T07:03:24.434Z,31.38
2018-07-25T07:08:27.503Z,31.56
2018-07-25T07:13:30.538Z,31.96
2018-07-25T07:18:33.560Z,32.24
2018-07-25T07:23:36.759Z,32.27
2018-07-25T07:28:39.872Z,32.16
2018-07-25T07:33:42.905Z,32.30
2018-07-25T07:38:46.051Z,32.37
2018-07-25T07:43:49.125Z,32.52
2018-07-25T07:48:52.155Z,32.54
2018-07-25T07:53:55.341Z,32.78
2018-07-25T07:59:03.545Z,32.95
2018-07-25T08:04:06.574Z,33.02
2018-07-25T08:09:12.025Z,33.16
2018-07-25T08:14:15.058Z,33.31
2018-07-25T08:19:18.155Z,33.45
2018-07-25T08:24:21.241Z,33.76
2018-07-25T08:29:24.331Z,34.14
2018-07-25T08:34:27.433Z,34.52
2018-07-25T08:39:30.486Z,34.75
2018-07-25T08:44:33.505Z,34.76
2018-07-25T08:49:36.558Z,34.75
2018-07-25T08:54:39.633Z,34.82
2018-07-25T08:59:42.650Z,34.96
2018-07-25T09:04:45.841Z,35.36
2018-07-25T09:09:48.819Z,35.38
2018-07-25T09:14:51.803Z,35.53
2018-07-25T09:19:54.986Z,35.49
2018-07-25T09:24:58.141Z,35.36
2018-07-25T09:30:01.311Z,35.47
2018-07-25T09:35:04.369Z,35.69
2018-07-25T09:40:07.454Z,35.84
2018-07-25T09:45:10.560Z,36.13
2018-07-25T09:50:13.626Z,36.21
2018-07-25T09:55:16.629Z,36.05
2018-07-25T10:00:25.381Z,36.25
2018-07-25T10:05:28.424Z,36.21
2018-07-25T10:10:31.530Z,36.23
2018-07-25T10:15:34.817Z,36.33
2018-07-25T10:20:37.951Z,36.48
2018-07-25T10:25:40.973Z,36.43
2018-07-25T10:30:44.780Z,37.01
2018-07-25T10:35:47.906Z,36.83
2018-07-25T10:40:51.042Z,36.81
2018-07-25T10:45:54.151Z,37.02
2018-07-25T10:50:57.477Z,37.01
2018-07-25T10:56:00.572Z,36.39
2018-07-25T11:01:04.169Z,36.85
2018-07-25T11:06:07.402Z,37.09
2018-07-25T11:11:10.531Z,36.94
2018-07-25T11:16:14.025Z,37.15
2018-07-25T11:21:17.562Z,37.61
2018-07-25T11:26:20.637Z,37.82
2018-07-25T11:31:23.828Z,37.24
2018-07-25T11:36:26.872Z,37.48
2018-07-25T11:41:29.957Z,37.71
2018-07-25T11:46:33.066Z,37.15
2018-07-25T11:51:36.092Z,37.11
2018-07-25T11:56:39.121Z,37.23
2018-07-25T12:01:42.302Z,37.65
2018-07-25T12:06:45.329Z,38.10
2018-07-25T12:11:48.413Z,38.26
2018-07-25T12:16:51.446Z,39.01
2018-07-25T12:21:54.578Z,39.08
2018-07-25T12:26:57.901Z,39.39
2018-07-25T12:32:01.051Z,39.55
2018-07-25T12:37:04.139Z,38.91
2018-07-25T12:42:07.205Z,38.55
2018-07-25T12:47:10.856Z,38.53
2018-07-25T12:52:13.937Z,38.07
2018-07-25T12:57:17.001Z,37.70
2018-07-25T13:02:20.047Z,37.63
2018-07-25T13:07:23.070Z,37.72
2018-07-25T13:12:26.098Z,37.51
2018-07-25T13:17:29.201Z,37.52
2018-07-25T13:22:32.421Z,37.70
2018-07-25T13:27:35.476Z,37.94
2018-07-25T13:32:38.521Z,38.18
2018-07-25T13:37:41.636Z,38.89
2018-07-25T13:42:44.719Z,39.20
2018-07-25T13:47:47.752Z,39.45
2018-07-25T13:52:50.821Z,38.96
2018-07-25T13:57:53.940Z,38.64
2018-07-25T14:02:56.948Z,38.52
2018-07-25T14:08:00.433Z,38.53
2018-07-25T14:13:03.589Z,38.44
2018-07-25T14:18:06.800Z,38.10
2018-07-25T14:23:09.921Z,37.76
2018-07-25T14:28:13.377Z,37.86
2018-07-25T14:33:16.466Z,37.51
2018-07-25T14:38:19.525Z,37.70
2018-07-25T14:43:22.643Z,38.09
2018-07-25T14:48:25.644Z,38.42
2018-07-25T14:53:28.677Z,38.86
2018-07-25T14:58:31.722Z,39.25
2018-07-25T15:03:35.532Z,39.40
2018-07-25T15:08:38.779Z,39.17
2018-07-25T15:13:42.298Z,39.33
2018-07-25T15:18:45.882Z,40.04
2018-07-25T15:23:57.925Z,39.86
2018-07-25T15:29:01.641Z,38.92
2018-07-25T15:34:04.649Z,38.76
2018-07-25T15:39:14.418Z,38.91
2018-07-25T15:44:18.574Z,39.35
2018-07-25T15:49:22.699Z,39.70
2018-07-25T15:54:25.834Z,39.34
2018-07-25T15:59:28.942Z,39.31
2018-07-25T16:04:32.034Z,39.04
2018-07-25T16:09:35.108Z,37.78
2018-07-25T16:14:38.185Z,36.88
2018-07-25T16:19:41.262Z,36.57
2018-07-25T16:24:44.503Z,36.10
2018-07-25T16:29:47.518Z,35.41
2018-07-25T16:34:50.513Z,35.15
2018-07-25T16:39:53.597Z,35.10
2018-07-25T16:44:56.629Z,35.07
2018-07-25T16:49:59.653Z,35.05
2018-07-25T16:55:02.800Z,34.54
2018-07-25T17:00:05.869Z,34.18
2018-07-25T17:05:08.925Z,34.22
2018-07-25T17:10:12.001Z,34.24
2018-07-25T17:15:15.108Z,34.12
2018-07-25T17:20:18.161Z,33.97
2018-07-25T17:25:21.235Z,33.90
2018-07-25T17:30:24.301Z,33.85
2018-07-25T17:35:27.349Z,33.76
2018-07-25T17:40:30.386Z,33.86
2018-07-25T17:45:33.537Z,33.86
2018-07-25T17:50:36.605Z,33.87
2018-07-25T17:55:39.693Z,33.70
2018-07-25T18:00:42.730Z,33.60
2018-07-25T18:05:45.741Z,33.39
2018-07-25T18:10:48.793Z,33.32
2018-07-25T18:15:51.814Z,33.30
2018-07-25T18:20:54.987Z,33.26
2018-07-25T18:25:58.001Z,33.20
2018-07-25T18:31:01.078Z,33.05
2018-07-25T18:36:04.279Z,32.93
2018-07-25T18:41:08.054Z,32.84
2018-07-25T18:46:13.092Z,32.74
2018-07-25T18:51:16.193Z,32.63
2018-07-25T18:56:19.249Z,32.51
2018-07-25T19:01:22.310Z,32.40
2018-07-25T19:06:25.574Z,32.35
2018-07-25T19:11:28.605Z,32.26
2018-07-25T19:16:31.853Z,32.27
2018-07-25T19:21:34.873Z,32.25
2018-07-25T19:26:38.014Z,32.15
2018-07-25T19:31:41.225Z,32.04
2018-07-25T19:36:44.465Z,32.03
2018-07-25T19:41:47.523Z,31.96
2018-07-25T19:46:50.541Z,31.89
2018-07-25T19:51:53.657Z,31.81
2018-07-25T19:56:56.719Z,31.75
2018-07-25T20:01:59.863Z,31.71
2018-07-25T20:07:02.959Z,31.83
2018-07-25T20:12:07.300Z,31.86
2018-07-25T20:17:10.447Z,31.77
2018-07-25T20:22:14.006Z,31.68
2018-07-25T20:27:17.054Z,31.63
2018-07-25T20:32:20.145Z,31.56
2018-07-25T20:37:23.306Z,31.44
2018-07-25T20:42:26.617Z,31.33
2018-07-25T20:47:29.623Z,31.23
2018-07-25T20:52:32.708Z,31.15
2018-07-25T20:57:35.732Z,31.07
2018-07-25T21:02:40.628Z,31.01
2018-07-25T21:07:44.142Z,30.97
2018-07-25T21:12:47.179Z,30.93
2018-07-25T21:17:50.285Z,30.75
2018-07-25T21:22:53.294Z,30.59
2018-07-25T21:27:56.469Z,30.44
2018-07-25T21:32:59.482Z,30.43
2018-07-25T21:38:02.533Z,30.45
2018-07-25T21:43:05.868Z,30.43
2018-07-25T21:48:08.958Z,30.46
2018-07-25T21:53:11.993Z,30.35
2018-07-25T21:58:15.074Z,30.25
2018-07-25T22:03:18.094Z,29.95
2018-07-25T22:08:21.120Z,29.77
2018-07-25T22:13:24.125Z,29.59
2018-07-25T22:18:27.119Z,29.50
2018-07-25T22:23:30.144Z,29.39
2018-07-25T22:28:33.232Z,29.32
2018-07-25T22:33:36.245Z,29.31
2018-07-25T22:38:39.313Z,29.37
2018-07-25T22:43:43.349Z,29.33
2018-07-25T22:48:46.524Z,29.31
2018-07-25T22:53:49.689Z,29.26
2018-07-25T22:58:52.721Z,29.16
2018-07-25T23:03:55.825Z,29.08
2018-07-25T23:08:58.872Z,29.09
2018-07-25T23:14:01.915Z,29.13
2018-07-25T23:19:05.098Z,29.15
2018-07-25T23:24:08.136Z,29.10
2018-07-25T23:29:11.158Z,29.10
2018-07-25T23:34:14.240Z,29.06
2018-07-25T23:39:17.247Z,29.13
2018-07-25T23:44:20.311Z,29.16
2018-07-25T23:49:23.342Z,29.10
2018-07-25T23:54:26.753Z,28.99
2018-07-25T23:59:29.781Z,28.83
